Grand View, Canada
Current Conditions -  °F | °C
As of 9:00 PM on Wednesday 22 Oct 2014 (Local Time) from CYDN Reporting Station
Scattered Clouds Scattered Clouds  
Wind Chill: 54°   Ceiling: Unl
Heat Index: 54°   Visibility: 9mi
Dew Point: 48°   Wind: 14mph
Humidity: 82%   Direction: 280°W
Pressure: 29.66"   Gusts: NA
Location:  51.17°N, 100.7°W
Report Text: CYDN 230200Z AUTO 28012KT 9SM SCT075 12/09 A2966 RMK SLP051 DENSITY ALT 1200FT
Loading
Personal Weather Stations






























Interactive Weather Map
Tropical Storm Tracking
New forecast layout! Learn more

10-Day Weather Forecast

Advertisements
Track Severe Weather on mobile